createdAt,value
2018-07-28T00:00:10.229Z,0
2018-07-28T00:01:20.042Z,0
2018-07-28T00:02:30.131Z,0
2018-07-28T00:03:40.215Z,0
2018-07-28T00:04:50.045Z,0
2018-07-28T00:05:59.591Z,0
2018-07-28T00:07:09.677Z,0
2018-07-28T00:08:19.756Z,0
2018-07-28T00:09:29.810Z,0
2018-07-28T00:10:39.867Z,0
2018-07-28T00:11:50.005Z,0
2018-07-28T00:13:00.087Z,0
2018-07-28T00:14:10.159Z,0
2018-07-28T00:15:19.982Z,0
2018-07-28T00:16:30.054Z,0
2018-07-28T00:17:40.127Z,0
2018-07-28T00:18:50.280Z,0
2018-07-28T00:20:00.351Z,0
2018-07-28T00:21:10.433Z,0
2018-07-28T00:22:20.517Z,0
2018-07-28T00:23:30.402Z,0
2018-07-28T00:24:40.473Z,0
2018-07-28T00:25:50.549Z,0
2018-07-28T00:27:00.625Z,0
2018-07-28T00:28:10.452Z,0
2018-07-28T00:29:20.260Z,0
2018-07-28T00:30:30.076Z,0
2018-07-28T00:31:40.145Z,0
2018-07-28T00:32:50.232Z,0
2018-07-28T00:34:00.323Z,0
2018-07-28T00:35:10.441Z,0
2018-07-28T00:36:20.537Z,0
2018-07-28T00:37:30.653Z,0
2018-07-28T00:38:40.462Z,0
2018-07-28T00:39:50.269Z,0
2018-07-28T00:41:00.084Z,0
2018-07-28T00:42:10.168Z,0
2018-07-28T00:43:20.251Z,0
2018-07-28T00:44:30.326Z,0
2018-07-28T00:45:40.392Z,0
2018-07-28T00:46:50.460Z,0
2018-07-28T00:48:00.549Z,0
2018-07-28T00:49:10.647Z,0
2018-07-28T00:50:20.768Z,0
2018-07-28T00:51:30.849Z,0
2018-07-28T00:52:40.935Z,0
2018-07-28T00:53:51.004Z,0
2018-07-28T00:55:00.863Z,0
2018-07-28T00:56:10.952Z,0
2018-07-28T00:57:20.767Z,0
2018-07-28T00:58:30.621Z,0
2018-07-28T00:59:40.700Z,0
2018-07-28T01:00:50.786Z,0
2018-07-28T01:02:00.865Z,0
2018-07-28T01:03:10.939Z,0
2018-07-28T01:04:20.998Z,0
2018-07-28T01:05:30.812Z,0
2018-07-28T01:06:40.893Z,0
2018-07-28T01:07:50.435Z,0
2018-07-28T01:09:00.490Z,0
2018-07-28T01:10:10.622Z,0
2018-07-28T01:11:20.688Z,0
2018-07-28T01:12:30.750Z,0
2018-07-28T01:13:40.567Z,0
2018-07-28T01:14:50.635Z,0
2018-07-28T01:16:00.716Z,0
2018-07-28T01:17:10.535Z,0
2018-07-28T01:18:20.336Z,0
2018-07-28T01:19:30.408Z,0
2018-07-28T01:20:40.487Z,0
2018-07-28T01:21:50.041Z,0
2018-07-28T01:22:59.866Z,0
2018-07-28T01:24:09.685Z,0
2018-07-28T01:25:19.820Z,0
2018-07-28T01:26:29.886Z,0
2018-07-28T01:27:39.758Z,0
2018-07-28T01:28:49.820Z,0
2018-07-28T01:29:59.623Z,0
2018-07-28T01:31:09.439Z,0
2018-07-28T01:32:19.249Z,0
2018-07-28T01:33:29.372Z,0
2018-07-28T01:34:39.429Z,0
2018-07-28T01:35:49.260Z,0
2018-07-28T01:36:59.346Z,0
2018-07-28T01:38:09.174Z,0
2018-07-28T01:39:18.981Z,0
2018-07-28T01:40:29.058Z,0
2018-07-28T01:41:38.871Z,0
2018-07-28T01:42:48.960Z,0
2018-07-28T01:43:59.042Z,0
2018-07-28T01:45:09.120Z,0
2018-07-28T01:46:18.929Z,0
2018-07-28T01:47:28.741Z,0
2018-07-28T01:48:38.801Z,0
2018-07-28T01:49:48.882Z,0
2018-07-28T01:50:58.971Z,0
2018-07-28T01:52:09.040Z,0
2018-07-28T01:53:18.864Z,0
2018-07-28T01:54:28.925Z,0
2018-07-28T01:55:38.997Z,0
2018-07-28T01:56:49.113Z,0
2018-07-28T01:57:58.948Z,0
2018-07-28T01:59:08.487Z,0
2018-07-28T02:00:18.560Z,0
2018-07-28T02:01:28.633Z,0
2018-07-28T02:02:38.455Z,0
2018-07-28T02:03:47.998Z,0
2018-07-28T02:04:57.812Z,0
2018-07-28T02:06:07.906Z,0
2018-07-28T02:07:17.969Z,0
2018-07-28T02:08:28.033Z,0
2018-07-28T02:09:37.845Z,0
2018-07-28T02:10:47.649Z,0
2018-07-28T02:11:57.709Z,0
2018-07-28T02:13:07.787Z,0
2018-07-28T02:14:17.855Z,0
2018-07-28T02:15:27.930Z,0
2018-07-28T02:16:37.742Z,0
2018-07-28T02:17:47.813Z,0
2018-07-28T02:18:57.635Z,0
2018-07-28T02:20:07.697Z,0
2018-07-28T02:21:17.243Z,0
2018-07-28T02:22:27.053Z,0
2018-07-28T02:23:37.145Z,0
2018-07-28T02:24:46.967Z,0
2018-07-28T02:25:56.773Z,0
2018-07-28T02:27:06.848Z,0
2018-07-28T02:28:16.909Z,0
2018-07-28T02:29:26.979Z,0
2018-07-28T02:30:37.046Z,0
2018-07-28T02:31:46.874Z,0
2018-07-28T02:32:56.958Z,0
2018-07-28T02:34:07.045Z,0
2018-07-28T02:35:17.145Z,0
2018-07-28T02:36:26.966Z,0
2018-07-28T02:37:36.796Z,0
2018-07-28T02:38:46.873Z,0
2018-07-28T02:39:56.938Z,0
2018-07-28T02:41:07.051Z,0
2018-07-28T02:42:16.869Z,0
2018-07-28T02:43:26.427Z,0
2018-07-28T02:44:36.488Z,0
2018-07-28T02:45:46.306Z,0
2018-07-28T02:46:56.427Z,0
2018-07-28T02:48:06.261Z,0
2018-07-28T02:49:16.130Z,0
2018-07-28T02:50:26.201Z,0
2018-07-28T02:51:36.016Z,0
2018-07-28T02:52:46.080Z,0
2018-07-28T02:53:56.181Z,0
2018-07-28T02:55:06.268Z,0
2018-07-28T02:56:16.345Z,0
2018-07-28T02:57:26.155Z,0
2018-07-28T02:58:36.233Z,0
2018-07-28T02:59:46.044Z,0
2018-07-28T03:00:56.138Z,0
2018-07-28T03:02:05.941Z,0
2018-07-28T03:35:13.314Z,10
2018-07-28T03:36:23.376Z,15
2018-07-28T03:37:33.447Z,15
2018-07-28T03:38:43.514Z,15
2018-07-28T03:39:53.580Z,15
2018-07-28T03:41:03.670Z,15
2018-07-28T03:42:13.757Z,20
2018-07-28T03:43:23.810Z,20
2018-07-28T03:44:33.877Z,20
2018-07-28T03:45:43.939Z,25
2018-07-28T03:46:54.066Z,25
2018-07-28T03:48:03.886Z,25
2018-07-28T03:49:13.746Z,30
2018-07-28T03:50:23.889Z,30
2018-07-28T03:51:33.704Z,30
2018-07-28T03:52:43.525Z,30
2018-07-28T03:53:53.065Z,35
2018-07-28T03:55:03.125Z,35
2018-07-28T03:56:13.206Z,35
2018-07-28T03:57:23.022Z,40
2018-07-28T03:58:32.836Z,40
2018-07-28T03:59:42.904Z,40
2018-07-28T04:00:52.729Z,40
2018-07-28T04:02:02.795Z,40
2018-07-28T04:03:12.905Z,40
2018-07-28T04:04:23.243Z,45
2018-07-28T04:05:33.312Z,45
2018-07-28T04:06:43.390Z,45
2018-07-28T04:07:53.459Z,45
2018-07-28T04:09:03.525Z,45
2018-07-28T04:10:13.600Z,50
2018-07-28T04:11:23.674Z,50
2018-07-28T04:12:33.493Z,50
2018-07-28T04:13:43.294Z,55
2018-07-28T04:14:53.106Z,55
2018-07-28T04:16:02.915Z,55
2018-07-28T04:17:12.979Z,55
2018-07-28T04:18:22.533Z,60
2018-07-28T04:19:32.351Z,60
2018-07-28T04:20:42.452Z,60
2018-07-28T04:21:52.526Z,65
2018-07-28T04:23:02.356Z,65
2018-07-28T04:24:12.442Z,65
2018-07-28T04:25:22.574Z,75
2018-07-28T04:26:32.650Z,130
2018-07-28T04:27:42.722Z,135
2018-07-28T04:28:52.799Z,135
2018-07-28T04:30:02.877Z,145
2018-07-28T04:31:12.961Z,145
2018-07-28T04:32:23.051Z,140
2018-07-28T04:33:33.147Z,150
2018-07-28T04:34:42.951Z,165
2018-07-28T04:35:53.018Z,180
2018-07-28T04:37:02.977Z,170
2018-07-28T04:38:13.046Z,195
2018-07-28T04:39:23.229Z,220
2018-07-28T04:40:33.311Z,245
2018-07-28T04:41:43.401Z,295
2018-07-28T04:42:53.487Z,295
2018-07-28T04:44:03.845Z,295
2018-07-28T04:45:13.962Z,300
2018-07-28T04:46:24.059Z,200
2018-07-28T04:47:34.135Z,130
2018-07-28T04:48:44.209Z,130
2018-07-28T04:49:54.287Z,125
2018-07-28T04:51:04.105Z,165
2018-07-28T04:52:14.188Z,175
2018-07-28T04:53:24.263Z,140
2018-07-28T04:54:34.197Z,140
2018-07-28T04:55:44.286Z,180
2018-07-28T04:56:54.363Z,185
2018-07-28T04:58:04.200Z,180
2018-07-28T04:59:14.303Z,140
2018-07-28T05:00:24.444Z,120
2018-07-28T05:01:34.241Z,115
2018-07-28T05:02:44.321Z,105
2018-07-28T05:03:54.415Z,100
2018-07-28T05:05:04.508Z,105
2018-07-28T05:06:15.636Z,105
2018-07-28T05:07:26.434Z,105
2018-07-28T05:08:36.327Z,105
2018-07-28T05:09:46.393Z,105
2018-07-28T05:10:56.491Z,105
2018-07-28T05:12:06.148Z,110
2018-07-28T05:13:16.015Z,120
2018-07-28T05:14:26.082Z,120
2018-07-28T05:15:36.154Z,125
2018-07-28T05:16:46.209Z,130
2018-07-28T05:17:56.293Z,140
2018-07-28T05:19:06.104Z,155
2018-07-28T05:20:15.917Z,155
2018-07-28T05:21:25.996Z,160
2018-07-28T05:22:35.816Z,170
2018-07-28T05:23:45.831Z,165
2018-07-28T05:24:55.742Z,185
2018-07-28T05:26:05.824Z,150
2018-07-28T05:27:15.641Z,130
2018-07-28T05:28:25.500Z,125
2018-07-28T05:29:35.727Z,120
2018-07-28T05:30:45.824Z,120
2018-07-28T05:31:55.640Z,125
2018-07-28T05:33:05.713Z,130
2018-07-28T05:34:15.795Z,140
2018-07-28T05:35:25.866Z,150
2018-07-28T05:36:35.424Z,155
2018-07-28T05:37:45.494Z,145
2018-07-28T05:38:55.380Z,150
2018-07-28T05:40:05.532Z,150
2018-07-28T05:41:15.628Z,180
2018-07-28T05:42:25.721Z,200
2018-07-28T05:43:35.569Z,235
2018-07-28T05:44:45.663Z,250
2018-07-28T05:45:55.496Z,200
2018-07-28T05:47:05.311Z,200
2018-07-28T05:48:15.410Z,270
2018-07-28T05:49:25.497Z,220
2018-07-28T05:50:35.596Z,180
2018-07-28T05:51:45.677Z,165
2018-07-28T05:52:55.755Z,150
2018-07-28T05:54:05.569Z,150
2018-07-28T05:55:15.650Z,155
2018-07-28T05:56:25.718Z,155
2018-07-28T05:57:35.783Z,170
2018-07-28T05:58:45.872Z,175
2018-07-28T05:59:55.944Z,170
2018-07-28T06:01:06.036Z,170
2018-07-28T06:02:16.631Z,220
2018-07-28T06:03:26.728Z,220
2018-07-28T06:04:36.815Z,215
2018-07-28T06:05:46.897Z,245
2018-07-28T06:06:56.982Z,255
2018-07-28T06:08:07.075Z,235
2018-07-28T06:09:17.172Z,235
2018-07-28T06:10:27.304Z,235
2018-07-28T06:11:37.394Z,275
2018-07-28T06:12:47.527Z,260
2018-07-28T06:13:57.594Z,230
2018-07-28T06:15:07.681Z,210
2018-07-28T06:16:17.518Z,200
2018-07-28T06:17:27.583Z,200
2018-07-28T06:18:37.400Z,205
2018-07-28T06:19:47.474Z,205
2018-07-28T06:20:57.574Z,205
2018-07-28T06:22:07.757Z,205
2018-07-28T06:23:17.861Z,225
2018-07-28T06:24:27.696Z,245
2018-07-28T06:25:37.771Z,250
2018-07-28T06:26:47.854Z,250
2018-07-28T06:27:58.031Z,240
2018-07-28T06:29:08.110Z,225
2018-07-28T06:30:17.955Z,220
2018-07-28T06:31:28.122Z,230
2018-07-28T06:32:38.199Z,235
2018-07-28T06:33:48.263Z,235
2018-07-28T06:34:58.091Z,240
2018-07-28T06:36:08.188Z,240
2018-07-28T06:37:18.279Z,230
2018-07-28T06:38:28.375Z,220
2018-07-28T06:39:38.455Z,210
2018-07-28T06:40:47.962Z,210
2018-07-28T06:41:58.032Z,205
2018-07-28T06:43:08.147Z,195
2018-07-28T06:44:18.253Z,210
2018-07-28T06:45:27.797Z,225
2018-07-28T06:46:37.612Z,245
2018-07-28T06:47:47.697Z,245
2018-07-28T06:48:57.791Z,245
2018-07-28T06:50:07.884Z,245
2018-07-28T06:51:18.018Z,230
2018-07-28T06:52:28.109Z,200
2018-07-28T06:53:38.216Z,215
2018-07-28T06:54:48.089Z,220
2018-07-28T06:55:57.904Z,225
2018-07-28T06:57:07.981Z,225
2018-07-28T06:58:18.072Z,225
2018-07-28T06:59:27.896Z,220
2018-07-28T07:00:37.718Z,220
2018-07-28T07:01:47.789Z,215
2018-07-28T07:02:57.611Z,215
2018-07-28T07:04:07.422Z,210
2018-07-28T07:05:17.495Z,205
2018-07-28T07:06:27.580Z,200
2018-07-28T07:07:37.398Z,200
2018-07-28T07:08:47.495Z,200
2018-07-28T07:09:57.575Z,200
2018-07-28T07:11:07.664Z,200
2018-07-28T07:12:17.502Z,200
2018-07-28T07:13:27.585Z,200
2018-07-28T07:14:37.444Z,205
2018-07-28T07:15:47.525Z,200
2018-07-28T07:16:57.613Z,200
2018-07-28T07:18:07.697Z,200
2018-07-28T07:19:17.778Z,205
2018-07-28T07:20:27.872Z,195
2018-07-28T07:21:37.977Z,195
2018-07-28T07:22:48.051Z,195
2018-07-28T07:23:58.125Z,195
2018-07-28T07:25:07.966Z,195
2018-07-28T07:26:17.803Z,195
2018-07-28T07:27:27.876Z,190
2018-07-28T07:28:37.957Z,190
2018-07-28T07:29:48.070Z,190
2018-07-28T07:30:58.167Z,190
2018-07-28T07:32:08.238Z,190
2018-07-28T07:33:18.311Z,190
2018-07-28T07:34:28.129Z,190
2018-07-28T07:35:38.226Z,190
2018-07-28T07:36:48.050Z,190
2018-07-28T07:37:58.118Z,190
2018-07-28T07:39:08.260Z,190
2018-07-28T07:40:18.077Z,195
2018-07-28T07:41:28.159Z,190
2018-07-28T07:42:38.234Z,195
2018-07-28T07:43:48.366Z,190
2018-07-28T07:44:58.263Z,195
2018-07-28T07:46:08.344Z,195
2018-07-28T07:47:19.049Z,190
2018-07-28T07:48:29.163Z,190
2018-07-28T07:49:38.965Z,190
2018-07-28T07:50:48.789Z,190
2018-07-28T07:51:58.894Z,190
2018-07-28T07:53:08.985Z,190
2018-07-28T07:54:19.048Z,190
2018-07-28T07:55:29.152Z,190
2018-07-28T07:56:38.990Z,190
2018-07-28T07:57:49.071Z,190
2018-07-28T07:58:59.169Z,190
2018-07-28T08:00:09.249Z,190
2018-07-28T08:01:19.377Z,190
2018-07-28T08:02:29.248Z,190
2018-07-28T08:03:39.388Z,190
2018-07-28T08:04:49.438Z,190
2018-07-28T08:05:59.554Z,190
2018-07-28T08:07:09.702Z,190
2018-07-28T08:08:19.788Z,190
2018-07-28T08:09:29.875Z,190
2018-07-28T08:10:39.693Z,190
2018-07-28T08:11:49.760Z,190
2018-07-28T08:12:59.654Z,190
2018-07-28T08:14:09.493Z,190
2018-07-28T08:15:19.599Z,190
2018-07-28T08:16:29.412Z,190
2018-07-28T08:17:39.240Z,190
2018-07-28T08:18:49.328Z,190
2018-07-28T08:19:59.146Z,190
2018-07-28T08:21:09.631Z,190
2018-07-28T08:22:19.711Z,190
2018-07-28T08:23:29.797Z,190
2018-07-28T08:24:39.897Z,190
2018-07-28T08:25:49.984Z,190
2018-07-28T08:27:00.021Z,190
2018-07-28T08:28:10.352Z,195
2018-07-28T08:29:20.160Z,190
2018-07-28T08:30:30.305Z,190
2018-07-28T08:31:40.419Z,190
2018-07-28T08:32:50.504Z,190
2018-07-28T08:34:00.592Z,190
2018-07-28T08:35:10.669Z,190
2018-07-28T08:36:20.753Z,190
2018-07-28T08:37:30.827Z,190
2018-07-28T08:38:40.943Z,190
2018-07-28T08:39:51.133Z,190
2018-07-28T08:41:00.982Z,190
2018-07-28T08:42:11.144Z,190
2018-07-28T08:43:21.245Z,190
2018-07-28T08:44:31.314Z,190
2018-07-28T08:45:41.404Z,190
2018-07-28T08:46:50.974Z,190
2018-07-28T08:48:01.062Z,190
2018-07-28T08:49:12.107Z,190
2018-07-28T08:50:22.231Z,190
2018-07-28T08:51:32.317Z,190
2018-07-28T08:52:42.143Z,190
2018-07-28T08:53:52.231Z,190
2018-07-28T08:55:02.310Z,190
2018-07-28T08:56:12.409Z,190
2018-07-28T08:57:22.496Z,190
2018-07-28T08:58:32.324Z,190
2018-07-28T08:59:42.188Z,190
2018-07-28T09:00:52.328Z,190
2018-07-28T09:02:02.400Z,190
2018-07-28T09:03:12.485Z,190
2018-07-28T09:04:22.580Z,190
2018-07-28T09:05:32.657Z,190
2018-07-28T09:06:42.487Z,195
2018-07-28T09:07:52.596Z,195
2018-07-28T09:09:02.689Z,195
2018-07-28T09:10:12.795Z,200
2018-07-28T09:11:22.880Z,195
2018-07-28T09:12:33.428Z,195
2018-07-28T09:13:43.309Z,195
2018-07-28T09:14:53.382Z,195
2018-07-28T09:16:03.482Z,195
2018-07-28T09:17:13.559Z,195
2018-07-28T09:18:23.654Z,195
2018-07-28T09:19:33.468Z,195
2018-07-28T09:20:43.549Z,195
2018-07-28T09:21:53.412Z,195
2018-07-28T09:23:03.526Z,195
2018-07-28T09:24:13.677Z,195
2018-07-28T09:25:23.818Z,195
2018-07-28T09:26:33.930Z,195
2018-07-28T09:27:43.743Z,195
2018-07-28T09:28:53.859Z,195
2018-07-28T09:30:03.965Z,195
2018-07-28T09:31:14.104Z,195
2018-07-28T09:32:24.195Z,200
2018-07-28T09:33:34.021Z,195
2018-07-28T09:34:43.854Z,195
2018-07-28T09:35:54.000Z,200
2018-07-28T09:37:04.535Z,195
2018-07-28T09:38:14.673Z,200
2018-07-28T09:39:24.771Z,195
2018-07-28T09:40:34.843Z,195
2018-07-28T09:41:44.949Z,195
2018-07-28T09:42:54.507Z,195
2018-07-28T09:44:04.353Z,200
2018-07-28T09:45:14.328Z,195
2018-07-28T09:46:24.756Z,195
2018-07-28T09:47:37.621Z,195
2018-07-28T09:48:48.108Z,195
2018-07-28T09:49:58.190Z,195
2018-07-28T09:51:08.580Z,195
2018-07-28T09:52:18.758Z,200
2018-07-28T09:53:28.885Z,200
2018-07-28T09:54:38.990Z,200
2018-07-28T09:55:49.172Z,200
2018-07-28T09:56:59.245Z,200
2018-07-28T09:58:09.377Z,200
2018-07-28T09:59:20.627Z,200
2018-07-28T10:00:31.002Z,195
2018-07-28T10:01:41.964Z,165
2018-07-28T10:02:53.205Z,205
2018-07-28T10:04:03.639Z,205
2018-07-28T10:05:13.764Z,205
2018-07-28T10:06:23.859Z,205
2018-07-28T10:07:33.957Z,205
2018-07-28T10:08:44.111Z,205
2018-07-28T10:09:54.219Z,135
2018-07-28T10:11:04.073Z,195
2018-07-28T10:12:14.182Z,205
2018-07-28T10:13:24.280Z,205
2018-07-28T10:14:34.122Z,205
2018-07-28T10:15:44.225Z,200
2018-07-28T10:16:54.370Z,130
2018-07-28T10:18:04.209Z,165
2018-07-28T10:19:14.305Z,190
2018-07-28T10:20:24.148Z,145
2018-07-28T10:21:34.257Z,145
2018-07-28T10:22:44.445Z,155
2018-07-28T10:23:54.341Z,195
2018-07-28T10:25:04.433Z,205
2018-07-28T10:26:14.512Z,140
2018-07-28T10:27:24.602Z,205
2018-07-28T10:28:34.769Z,205
2018-07-28T10:29:44.602Z,210
2018-07-28T10:30:54.682Z,205
2018-07-28T10:32:04.558Z,210
2018-07-28T10:33:14.684Z,210
2018-07-28T10:34:24.819Z,210
2018-07-28T10:35:34.933Z,200
2018-07-28T10:36:45.415Z,205
2018-07-28T10:37:55.631Z,210
2018-07-28T10:39:05.758Z,215
2018-07-28T10:40:15.894Z,195
2018-07-28T10:41:26.239Z,210
2018-07-28T10:42:36.348Z,210
2018-07-28T10:43:46.440Z,210
2018-07-28T10:44:56.516Z,215
2018-07-28T10:46:06.366Z,215
2018-07-28T10:47:16.427Z,150
2018-07-28T10:48:26.523Z,185
2018-07-28T10:49:36.345Z,155
2018-07-28T10:50:46.442Z,220
2018-07-28T10:51:56.910Z,225
2018-07-28T10:53:07.082Z,225
2018-07-28T10:54:17.172Z,225
2018-07-28T10:55:27.085Z,225
2018-07-28T10:56:37.178Z,225
2018-07-28T10:57:47.312Z,225
2018-07-28T10:58:57.402Z,225
2018-07-28T11:00:07.540Z,220
2018-07-28T11:01:17.695Z,220
2018-07-28T11:02:27.786Z,220
2018-07-28T11:03:37.634Z,225
2018-07-28T11:04:47.740Z,230
2018-07-28T11:05:57.568Z,230
2018-07-28T11:07:07.679Z,235
2018-07-28T11:08:17.502Z,235
2018-07-28T11:09:27.389Z,235
2018-07-28T11:10:37.218Z,235
2018-07-28T11:11:47.321Z,235
2018-07-28T11:12:57.413Z,235
2018-07-28T11:14:07.248Z,230
2018-07-28T11:15:17.082Z,225
2018-07-28T11:16:27.182Z,230
2018-07-28T11:17:37.278Z,225
2018-07-28T11:18:47.736Z,155
2018-07-28T11:19:57.890Z,225
2018-07-28T11:21:07.982Z,225
2018-07-28T11:22:18.072Z,225
2018-07-28T11:23:28.314Z,225
2018-07-28T11:24:38.402Z,225
2018-07-28T11:25:48.267Z,225
2018-07-28T11:26:58.403Z,225
2018-07-28T11:28:08.501Z,225
2018-07-28T11:29:17.806Z,230
2018-07-28T11:30:27.373Z,230
2018-07-28T11:31:37.587Z,230
2018-07-28T11:32:47.774Z,230
2018-07-28T11:33:57.867Z,230
2018-07-28T11:35:07.702Z,230
2018-07-28T11:36:17.827Z,230
2018-07-28T11:37:27.915Z,230
2018-07-28T11:38:38.079Z,230
2018-07-28T11:39:48.183Z,230
2018-07-28T11:40:58.006Z,230
2018-07-28T11:42:08.107Z,235
2018-07-28T11:43:17.945Z,230
2018-07-28T11:44:27.813Z,230
2018-07-28T11:45:37.879Z,230
2018-07-28T11:46:47.970Z,230
2018-07-28T11:47:58.080Z,230
2018-07-28T11:49:08.206Z,230
2018-07-28T11:50:18.135Z,230
2018-07-28T11:51:28.041Z,230
2018-07-28T11:52:38.123Z,235
2018-07-28T11:53:48.223Z,235
2018-07-28T11:54:58.079Z,235
2018-07-28T11:56:08.187Z,235
2018-07-28T11:57:18.285Z,230
2018-07-28T11:58:29.157Z,230
2018-07-28T11:59:39.036Z,225
2018-07-28T12:00:48.874Z,225
2018-07-28T12:01:59.094Z,225
2018-07-28T12:03:09.193Z,225
2018-07-28T12:04:19.273Z,230
2018-07-28T12:05:29.303Z,235
2018-07-28T12:06:39.463Z,235
2018-07-28T12:07:49.858Z,240
2018-07-28T12:09:00.197Z,235
2018-07-28T12:10:10.032Z,235
2018-07-28T12:11:20.168Z,235
2018-07-28T12:12:30.410Z,235
2018-07-28T12:13:39.954Z,220
2018-07-28T12:14:49.799Z,230
2018-07-28T12:15:59.892Z,230
2018-07-28T12:17:09.703Z,230
2018-07-28T12:18:20.218Z,235
2018-07-28T12:19:30.408Z,225
2018-07-28T12:20:40.738Z,225
2018-07-28T12:21:50.826Z,225
2018-07-28T12:23:00.934Z,230
2018-07-28T12:24:11.437Z,230
2018-07-28T12:25:21.536Z,230
2018-07-28T12:26:31.633Z,230
2018-07-28T12:27:41.730Z,230
2018-07-28T12:28:51.571Z,230
2018-07-28T12:30:01.391Z,235
2018-07-28T12:31:11.483Z,230
2018-07-28T12:32:21.593Z,230
2018-07-28T12:33:31.464Z,220
2018-07-28T12:34:41.858Z,225
2018-07-28T12:35:51.982Z,230
2018-07-28T12:37:01.813Z,240
2018-07-28T12:38:11.916Z,245
2018-07-28T12:39:21.766Z,245
2018-07-28T12:40:31.871Z,245
2018-07-28T12:41:41.689Z,245
2018-07-28T12:42:51.787Z,245
2018-07-28T12:44:01.881Z,245
2018-07-28T12:45:12.036Z,240
2018-07-28T12:46:21.870Z,245
2018-07-28T12:47:31.955Z,255
2018-07-28T12:48:42.056Z,260
2018-07-28T12:49:52.140Z,255
2018-07-28T12:51:02.300Z,255
2018-07-28T12:52:12.395Z,245
2018-07-28T12:53:22.467Z,250
2018-07-28T12:54:32.568Z,240
2018-07-28T12:55:42.811Z,240
2018-07-28T12:56:52.911Z,245
2018-07-28T12:58:02.998Z,250
2018-07-28T12:59:13.103Z,250
2018-07-28T13:00:23.202Z,250
2018-07-28T13:01:33.295Z,155
2018-07-28T13:02:43.448Z,155
2018-07-28T13:03:53.691Z,155
2018-07-28T13:05:03.799Z,150
2018-07-28T13:06:13.909Z,145
2018-07-28T13:07:23.998Z,150
2018-07-28T13:08:33.891Z,170
2018-07-28T13:09:44.051Z,250
2018-07-28T13:10:54.170Z,255
2018-07-28T13:12:04.279Z,260
2018-07-28T13:13:14.404Z,265
2018-07-28T13:14:24.503Z,275
2018-07-28T13:15:34.605Z,270
2018-07-28T13:16:44.701Z,265
2018-07-28T13:17:55.064Z,260
2018-07-28T13:19:05.262Z,265
2018-07-28T13:20:15.169Z,265
2018-07-28T13:21:25.275Z,270
2018-07-28T13:22:35.374Z,270
2018-07-28T13:23:45.787Z,265
2018-07-28T13:24:55.886Z,185
2018-07-28T13:26:05.985Z,180
2018-07-28T13:27:15.820Z,175
2018-07-28T13:28:25.941Z,175
2018-07-28T13:29:36.063Z,215
2018-07-28T13:30:45.917Z,255
2018-07-28T13:31:56.089Z,205
2018-07-28T13:33:06.194Z,205
2018-07-28T13:34:16.301Z,225
2018-07-28T13:35:26.591Z,180
2018-07-28T13:36:36.448Z,230
2018-07-28T13:37:46.604Z,225
2018-07-28T13:38:56.454Z,260
2018-07-28T13:40:06.589Z,205
2018-07-28T13:41:16.417Z,265
2018-07-28T13:42:26.773Z,270
2018-07-28T13:43:36.905Z,265
2018-07-28T13:44:47.019Z,260
2018-07-28T13:45:56.882Z,260
2018-07-28T13:47:06.986Z,260
2018-07-28T13:48:17.111Z,255
2018-07-28T13:49:27.213Z,265
2018-07-28T13:50:37.056Z,265
2018-07-28T13:51:46.897Z,265
2018-07-28T13:52:57.006Z,275
2018-07-28T13:54:07.117Z,265
2018-07-28T13:55:17.215Z,265
2018-07-28T13:56:27.322Z,265
2018-07-28T13:57:37.429Z,270
2018-07-28T13:58:47.564Z,275
2018-07-28T13:59:57.677Z,275
2018-07-28T14:01:07.520Z,280
2018-07-28T14:02:17.357Z,275
2018-07-28T14:03:27.187Z,275
2018-07-28T14:04:37.309Z,275
2018-07-28T14:05:47.153Z,285
2018-07-28T14:06:57.299Z,295
2018-07-28T14:08:07.405Z,310
2018-07-28T14:09:17.517Z,305
2018-07-28T14:10:27.586Z,310
2018-07-28T14:11:37.438Z,320
2018-07-28T14:12:47.613Z,320
2018-07-28T14:13:57.716Z,320
2018-07-28T14:15:08.268Z,320
2018-07-28T14:16:18.399Z,315
2018-07-28T14:17:28.540Z,315
2018-07-28T14:18:39.614Z,315
2018-07-28T14:19:49.192Z,320
2018-07-28T14:20:59.272Z,325
2018-07-28T14:22:09.382Z,320
2018-07-28T14:23:19.505Z,315
2018-07-28T14:24:29.613Z,315
2018-07-28T14:25:39.708Z,310
2018-07-28T14:26:49.814Z,305
2018-07-28T14:27:59.669Z,300
2018-07-28T14:29:09.340Z,295
2018-07-28T14:30:19.440Z,305
2018-07-28T14:31:29.757Z,300
2018-07-28T14:32:39.609Z,295
2018-07-28T14:33:49.184Z,290
2018-07-28T14:34:59.257Z,280
2018-07-28T14:36:09.367Z,270
2018-07-28T14:37:19.698Z,260
2018-07-28T14:38:29.576Z,260
2018-07-28T14:39:39.409Z,255
2018-07-28T14:40:49.511Z,250
2018-07-28T14:41:59.320Z,245
2018-07-28T14:43:09.409Z,245
2018-07-28T14:44:19.252Z,240
2018-07-28T14:45:29.349Z,230
2018-07-28T14:46:39.450Z,230
2018-07-28T14:47:49.282Z,225
2018-07-28T14:48:59.089Z,225
2018-07-28T14:50:09.182Z,220
2018-07-28T14:51:19.266Z,220
2018-07-28T14:52:29.091Z,210
2018-07-28T14:53:39.185Z,210
2018-07-28T14:54:49.000Z,200
2018-07-28T14:55:59.094Z,205
2018-07-28T14:57:09.179Z,200
2018-07-28T14:58:19.059Z,200
2018-07-28T14:59:28.910Z,195
2018-07-28T15:00:38.773Z,195
2018-07-28T15:01:48.619Z,195
2018-07-28T15:02:58.749Z,190
2018-07-28T15:04:08.582Z,195
2018-07-28T15:05:18.705Z,190
2018-07-28T15:06:28.820Z,190
2018-07-28T15:07:39.062Z,195
2018-07-28T15:08:49.175Z,190
2018-07-28T15:09:59.318Z,190
2018-07-28T15:11:09.407Z,185
2018-07-28T15:12:19.515Z,185
2018-07-28T15:13:29.380Z,185
2018-07-28T15:14:39.488Z,180
2018-07-28T15:15:49.572Z,170
2018-07-28T15:16:59.676Z,165
2018-07-28T15:18:09.767Z,165
2018-07-28T15:19:19.844Z,170
2018-07-28T15:20:29.671Z,165
2018-07-28T15:21:40.237Z,165
2018-07-28T15:22:50.404Z,165
2018-07-28T15:24:00.495Z,165
2018-07-28T15:25:10.594Z,165
2018-07-28T15:26:20.680Z,165
2018-07-28T15:27:30.548Z,160
2018-07-28T15:28:40.790Z,160
2018-07-28T15:29:50.691Z,160
2018-07-28T15:31:00.794Z,160
2018-07-28T15:32:10.908Z,160
2018-07-28T15:33:21.066Z,155
2018-07-28T15:34:31.163Z,155
2018-07-28T15:35:41.264Z,155
2018-07-28T15:36:51.454Z,160
2018-07-28T15:38:00.748Z,155
2018-07-28T15:39:10.894Z,155
2018-07-28T15:40:20.744Z,155
2018-07-28T15:41:30.838Z,155
2018-07-28T15:42:40.928Z,160
2018-07-28T15:43:50.516Z,160
2018-07-28T15:45:00.622Z,160
2018-07-28T15:46:10.716Z,160
2018-07-28T15:47:20.806Z,160
2018-07-28T15:48:30.902Z,160
2018-07-28T15:49:41.336Z,160
2018-07-28T15:50:51.423Z,160
2018-07-28T15:52:01.528Z,160
2018-07-28T15:53:11.350Z,155
2018-07-28T15:54:21.449Z,155
2018-07-28T15:55:31.269Z,155
2018-07-28T15:56:41.199Z,155
2018-07-28T15:57:51.018Z,155
2018-07-28T15:59:01.132Z,150
2018-07-28T16:00:11.235Z,150
2018-07-28T16:01:21.065Z,150
2018-07-28T16:02:31.258Z,150
2018-07-28T16:03:41.391Z,150
2018-07-28T16:04:51.489Z,145
2018-07-28T16:06:01.931Z,145
2018-07-28T16:07:11.828Z,145
2018-07-28T16:08:21.938Z,145
2018-07-28T16:09:32.023Z,140
2018-07-28T16:10:42.106Z,135
2018-07-28T16:11:52.241Z,135
2018-07-28T16:13:02.416Z,135
2018-07-28T16:14:12.516Z,135
2018-07-28T16:15:22.613Z,135
2018-07-28T16:16:32.167Z,135
2018-07-28T16:17:42.255Z,130
2018-07-28T16:18:52.338Z,130
2018-07-28T16:20:02.605Z,130
2018-07-28T16:21:12.752Z,130
2018-07-28T16:22:22.580Z,130
2018-07-28T16:23:32.675Z,130
2018-07-28T16:24:42.522Z,125
2018-07-28T16:25:52.620Z,125
2018-07-28T16:27:02.723Z,125
2018-07-28T16:28:12.813Z,120
2018-07-28T16:29:22.908Z,120
2018-07-28T16:30:32.990Z,115
2018-07-28T16:31:43.315Z,115
2018-07-28T16:32:53.160Z,115
2018-07-28T16:34:03.263Z,110
2018-07-28T16:35:13.356Z,115
2018-07-28T16:36:23.445Z,110
2018-07-28T16:37:33.006Z,110
2018-07-28T16:38:43.092Z,105
2018-07-28T16:39:53.176Z,105
2018-07-28T16:41:03.001Z,105
2018-07-28T16:42:12.864Z,105
2018-07-28T16:43:23.031Z,105
2018-07-28T16:44:33.160Z,105
2018-07-28T16:45:42.957Z,105
2018-07-28T16:46:53.187Z,105
2018-07-28T16:48:03.304Z,105
2018-07-28T16:49:13.433Z,105
2018-07-28T16:50:23.506Z,100